Aviation Digital Data Service (ADDS)

Output produced by METARs form (0507 UTC 21 September 2017)
found at http://www.aviationweather.gov/adds/metars/
 
LKCV 210500Z VRB01KT 8000 NSC 07/06 Q1020 NOSIG RMK BLU+BLU
TAF LKCV 202300Z 2100/2200 31008KT CAVOK 
     BECMG 2107/2109 31012KT BKN030 
     BECMG 2116/2118 31008KT CAVOK
       
LKCV 210500Z VRB01KT 8000 NSC 07/06 Q1020 NOSIG RMK BLU+BLU
TAF LKCV 202300Z 2100/2200 31008KT CAVOK 
     BECMG 2107/2109 31012KT BKN030 
     BECMG 2116/2118 31008KT CAVOK
       
LKKB 210500Z 26003KT 170V290 CAVOK 07/06 Q1021 NOSIG
TAF LKKB 202300Z 2100/2200 29008KT CAVOK 
     PROB40 2102/2105 5000 BR 
     BECMG 2108/2110 BKN035
       
LKKV 210500Z VRB02KT 9999 FEW020 08/07 Q1021
TAF AMD LKKV 210230Z 2102/2206 27006KT 9999 SCT035 
     BECMG 2103/2105 VRB02KT 2000 BR SCT002 
     TEMPO 2105/2107 1200 BR BKN001 
     PROB30 2105/2106 0400 FG BKN001 
     BECMG 2107/2109 9999 SCT025 
     PROB30 
     TEMPO 2110/2116 30006KT 4000 SHRA BKN013 
     BECMG 2121/2123 9999 BKN025 
     TEMPO 2201/2206 5000 RA BR BKN010 
     PROB30 
     TEMPO 2202/2206 1200 RA BR BKN004
       
LKLN 210500Z AUTO 20002KT 9999 OVC041 08/07 Q1021
LKMT 210500Z 36008KT 320V020 9999 SCT012 10/08 Q1016 NOSIG
TAF AMD LKMT 202300Z 2100/2206 02006KT 9999 BKN025 
     TEMPO 2100/2118 01014G26KT 
     TEMPO 2100/2110 7000 SHRA BKN012 
     PROB30 
     TEMPO 2100/2107 3000 RA BR BKN006 
     TEMPO 2110/2203 4000 SHRA BKN012 
     PROB30 
     TEMPO 2203/2206 1200 MIFG BKN003
       
LKNA 210500Z 30012KT 9000 NSC 07/06 Q1018 NOSIG RMK BLU BLU
TAF LKNA 202300Z 2100/2200 34010KT CAVOK 
     BECMG 2105/2107 SCT030 
     TEMPO 2108/2115 33016G26KT BKN025 
     BECMG 2116/2118 CAVOK
       
LKPD 210500Z 26004KT 7000 SCT040 06/06 Q1020 NOSIG RMK BLU BLU
TAF LKPD 202300Z 2100/2124 30010KT 9999 SCT040 
     PROB40 2102/2107 VRB02KT 5000 BR BKN015 
     BECMG 2107/2109 BKN020 
     BECMG 2111/2113 SCT030 BKN040
       
LKPR 210500Z 25006KT CAVOK 06/05 Q1020 NOSIG
TAF LKPR 202300Z 2100/2206 28008KT CAVOK 
     TEMPO 2104/2106 4000 BR SCT040 
     PROB30 
     TEMPO 2104/2106 2000 MIFG 
     TEMPO 2109/2116 9999 BKN030 
     PROB30 
     TEMPO 2110/2116 SHRA 
     BECMG 2200/2202 9999 BKN035
       
LKTB 210500Z 31010KT CAVOK 09/07 Q1017 NOSIG
TAF LKTB 202300Z 2100/2206 30008KT CAVOK 
     PROB30 
     TEMPO 2110/2116 7000 SHRA BKN030
       
LKKV 210500Z VRB02KT 9999 FEW020 08/07 Q1021
TAF AMD LKKV 210230Z 2102/2206 27006KT 9999 SCT035 
     BECMG 2103/2105 VRB02KT 2000 BR SCT002 
     TEMPO 2105/2107 1200 BR BKN001 
     PROB30 2105/2106 0400 FG BKN001 
     BECMG 2107/2109 9999 SCT025 
     PROB30 
     TEMPO 2110/2116 30006KT 4000 SHRA BKN013 
     BECMG 2121/2123 9999 BKN025 
     TEMPO 2201/2206 5000 RA BR BKN010 
     PROB30 
     TEMPO 2202/2206 1200 RA BR BKN004
       
LKKB 210500Z 26003KT 170V290 CAVOK 07/06 Q1021 NOSIG
TAF LKKB 202300Z 2100/2200 29008KT CAVOK 
     PROB40 2102/2105 5000 BR 
     BECMG 2108/2110 BKN035
       
LKLN 210500Z AUTO 20002KT 9999 OVC041 08/07 Q1021
LKMT 210500Z 36008KT 320V020 9999 SCT012 10/08 Q1016 NOSIG
TAF AMD LKMT 202300Z 2100/2206 02006KT 9999 BKN025 
     TEMPO 2100/2118 01014G26KT 
     TEMPO 2100/2110 7000 SHRA BKN012 
     PROB30 
     TEMPO 2100/2107 3000 RA BR BKN006 
     TEMPO 2110/2203 4000 SHRA BKN012 
     PROB30 
     TEMPO 2203/2206 1200 MIFG BKN003
       
LKNA 210500Z 30012KT 9000 NSC 07/06 Q1018 NOSIG RMK BLU BLU
TAF LKNA 202300Z 2100/2200 34010KT CAVOK 
     BECMG 2105/2107 SCT030 
     TEMPO 2108/2115 33016G26KT BKN025 
     BECMG 2116/2118 CAVOK
       
LKPD 210500Z 26004KT 7000 SCT040 06/06 Q1020 NOSIG RMK BLU BLU
TAF LKPD 202300Z 2100/2124 30010KT 9999 SCT040 
     PROB40 2102/2107 VRB02KT 5000 BR BKN015 
     BECMG 2107/2109 BKN020 
     BECMG 2111/2113 SCT030 BKN040
       
LKPR 210500Z 25006KT CAVOK 06/05 Q1020 NOSIG
TAF LKPR 202300Z 2100/2206 28008KT CAVOK 
     TEMPO 2104/2106 4000 BR SCT040 
     PROB30 
     TEMPO 2104/2106 2000 MIFG 
     TEMPO 2109/2116 9999 BKN030 
     PROB30 
     TEMPO 2110/2116 SHRA 
     BECMG 2200/2202 9999 BKN035
       
LKTB 210500Z 31010KT CAVOK 09/07 Q1017 NOSIG
TAF LKTB 202300Z 2100/2206 30008KT CAVOK 
     PROB30 
     TEMPO 2110/2116 7000 SHRA BKN030